createdAt,value
2022-12-17T00:02:27.358Z,-1.28
2022-12-17T00:05:12.522Z,-1.42
2022-12-17T00:07:57.302Z,-1.45
2022-12-17T00:10:42.114Z,-0.96
2022-12-17T00:13:39.425Z,-1.21
2022-12-17T00:16:25.239Z,-0.99
2022-12-17T00:19:10.658Z,-1.15
2022-12-17T00:21:56.386Z,-1.51
2022-12-17T00:24:42.068Z,-1.30
2022-12-17T00:27:26.736Z,-1.03
2022-12-17T00:30:11.717Z,-1.36
2022-12-17T00:32:56.611Z,-1.11
2022-12-17T00:35:41.437Z,-1.13
2022-12-17T00:38:36.261Z,-0.70
2022-12-17T00:41:21.840Z,-0.74
2022-12-17T00:44:06.481Z,-0.76
2022-12-17T00:46:51.422Z,-0.62
2022-12-17T00:49:36.886Z,-0.61
2022-12-17T00:52:21.836Z,-0.69
2022-12-17T00:55:06.320Z,-0.53
2022-12-17T00:57:51.156Z,-1.07
2022-12-17T01:00:36.818Z,-1.21
2022-12-17T01:03:27.499Z,-1.19
2022-12-17T01:06:12.123Z,-1.19
2022-12-17T01:08:57.207Z,-1.21
2022-12-17T01:11:41.871Z,-1.11
2022-12-17T01:14:47.266Z,-0.90
2022-12-17T01:17:32.052Z,-0.87
2022-12-17T01:20:16.877Z,-0.84
2022-12-17T01:23:03.178Z,-0.97
2022-12-17T01:25:48.272Z,-1.30
2022-12-17T01:28:42.746Z,-1.38
2022-12-17T01:31:34.289Z,-1.37
2022-12-17T01:34:19.790Z,-1.26
2022-12-17T01:37:05.622Z,-1.05
2022-12-17T01:39:50.240Z,-1.01
2022-12-17T01:42:35.192Z,-0.89
2022-12-17T01:45:20.976Z,-0.70
2022-12-17T01:48:07.882Z,-0.83
2022-12-17T01:50:56.589Z,-0.82
2022-12-17T01:53:48.817Z,-0.70
2022-12-17T01:56:34.918Z,-0.57
2022-12-17T01:59:21.988Z,-0.66
2022-12-17T02:02:06.695Z,-0.76
2022-12-17T02:04:52.258Z,-1.14
2022-12-17T02:07:52.596Z,-0.75
2022-12-17T02:10:47.732Z,-0.71
2022-12-17T02:13:39.028Z,-0.93
2022-12-17T02:16:35.956Z,-1.19
2022-12-17T02:19:48.687Z,-0.94
2022-12-17T02:22:49.455Z,-1.28
2022-12-17T02:25:44.632Z,-1.49
2022-12-17T02:28:30.056Z,-1.18
2022-12-17T02:31:16.605Z,-1.17
2022-12-17T02:34:02.824Z,-0.48
2022-12-17T02:36:53.503Z,-0.50
2022-12-17T02:39:39.301Z,-0.19
2022-12-17T02:42:24.092Z,-0.51
2022-12-17T02:45:10.222Z,-0.22
2022-12-17T02:47:55.185Z,-0.47
2022-12-17T02:50:41.110Z,-0.64
2022-12-17T02:53:27.503Z,-0.80
2022-12-17T02:56:12.572Z,-0.90
2022-12-17T02:58:57.325Z,-0.83
2022-12-17T03:01:42.154Z,-0.93
2022-12-17T03:04:27.040Z,-1.02
2022-12-17T03:07:11.796Z,-0.64
2022-12-17T03:09:56.378Z,-0.79
2022-12-17T03:12:42.613Z,-0.67
2022-12-17T03:15:27.995Z,-0.26
2022-12-17T03:18:12.811Z,-0.13
2022-12-17T03:20:57.546Z,-0.03
2022-12-17T03:23:42.346Z,-0.78
2022-12-17T03:26:27.202Z,-0.81
2022-12-17T03:29:12.195Z,-1.03
2022-12-17T03:31:57.107Z,-1.05
2022-12-17T03:34:42.070Z,-1.03
2022-12-17T03:37:26.711Z,-0.74
2022-12-17T03:40:11.708Z,-0.94
2022-12-17T03:42:56.135Z,-0.34
2022-12-17T03:45:41.089Z,-0.98
2022-12-17T03:48:28.409Z,-0.99
2022-12-17T03:51:13.824Z,-1.26
2022-12-17T03:53:59.194Z,-1.38
2022-12-17T03:56:45.164Z,-1.09
2022-12-17T03:59:30.549Z,-1.28
2022-12-17T04:02:15.914Z,-1.04
2022-12-17T04:05:00.913Z,-1.38
2022-12-17T04:07:46.099Z,-1.27
2022-12-17T04:10:31.534Z,-1.11
2022-12-17T04:13:16.330Z,-0.85
2022-12-17T04:16:01.368Z,-1.27
2022-12-17T04:18:46.703Z,-1.73
2022-12-17T04:21:31.472Z,-1.51
2022-12-17T04:24:16.878Z,-1.33
2022-12-17T04:27:01.346Z,-1.67
2022-12-17T04:29:46.490Z,-1.66
2022-12-17T04:32:35.010Z,-1.85
2022-12-17T04:35:20.942Z,-2.01
2022-12-17T04:38:05.855Z,-2.11
2022-12-17T04:40:50.831Z,-1.81
2022-12-17T04:43:36.248Z,-1.93
2022-12-17T04:46:21.701Z,-1.78
2022-12-17T04:49:06.631Z,-1.77
2022-12-17T04:51:51.657Z,-1.40
2022-12-17T04:54:36.370Z,-1.16
2022-12-17T04:57:21.076Z,-0.71
2022-12-17T05:00:06.061Z,-0.85
2022-12-17T05:02:51.420Z,-1.27
2022-12-17T05:05:36.430Z,-1.49
2022-12-17T05:08:21.725Z,-1.73
2022-12-17T05:11:06.655Z,-2.04
2022-12-17T05:13:51.599Z,-2.00
2022-12-17T05:16:36.346Z,-2.19
2022-12-17T05:19:21.787Z,-2.01
2022-12-17T05:22:06.559Z,-2.04
2022-12-17T05:24:51.641Z,-1.98
2022-12-17T05:27:36.377Z,-1.95
2022-12-17T05:30:22.216Z,-1.83
2022-12-17T05:33:16.164Z,-2.15
2022-12-17T05:36:01.469Z,-2.08
2022-12-17T05:38:46.744Z,-1.86
2022-12-17T05:41:31.883Z,-1.49
2022-12-17T05:44:16.567Z,-1.73
2022-12-17T05:47:01.449Z,-1.22
2022-12-17T05:49:46.042Z,-1.78
2022-12-17T05:52:41.679Z,-1.35
2022-12-17T05:55:27.049Z,-1.61
2022-12-17T05:58:26.836Z,-1.43
2022-12-17T06:01:20.320Z,-1.74
2022-12-17T06:04:05.494Z,-1.69
2022-12-17T06:06:50.838Z,-1.85
2022-12-17T06:09:36.397Z,-1.66
2022-12-17T06:12:21.117Z,-1.54
2022-12-17T06:15:06.070Z,-1.67
2022-12-17T06:17:50.789Z,-1.67
2022-12-17T06:20:35.588Z,-1.86
2022-12-17T06:23:21.976Z,-1.92
2022-12-17T06:26:07.057Z,-1.94
2022-12-17T06:28:51.776Z,-1.96
2022-12-17T06:31:37.222Z,-1.93
2022-12-17T06:34:22.126Z,-1.89
2022-12-17T06:37:06.961Z,-1.77
2022-12-17T06:39:51.730Z,-1.77
2022-12-17T06:42:36.994Z,-1.87
2022-12-17T06:45:22.258Z,-1.63
2022-12-17T06:48:07.372Z,-1.42
2022-12-17T06:50:52.253Z,-1.49
2022-12-17T06:53:37.365Z,-1.39
2022-12-17T06:56:22.451Z,-1.09
2022-12-17T06:59:07.845Z,-1.37
2022-12-17T07:01:52.389Z,-1.19
2022-12-17T07:04:37.716Z,-1.21
2022-12-17T07:07:21.982Z,-1.34
2022-12-17T07:10:13.612Z,-1.29
2022-12-17T07:12:58.774Z,-1.39
2022-12-17T07:15:44.053Z,-1.11
2022-12-17T07:18:28.793Z,-1.15
2022-12-17T07:21:13.632Z,-1.23
2022-12-17T07:23:58.024Z,-1.29
2022-12-17T07:26:42.721Z,-0.96
2022-12-17T07:29:27.662Z,-1.24
2022-12-17T07:32:12.589Z,-1.37
2022-12-17T07:34:57.242Z,-1.15
2022-12-17T07:37:41.915Z,-1.11
2022-12-17T07:40:27.760Z,-1.31
2022-12-17T07:43:13.145Z,-1.39
2022-12-17T07:46:14.820Z,-1.32
2022-12-17T07:48:59.885Z,-1.22
2022-12-17T07:51:44.586Z,-0.96
2022-12-17T07:54:29.299Z,-1.24
2022-12-17T07:57:14.168Z,-1.20
2022-12-17T07:59:59.253Z,-1.23
2022-12-17T08:02:44.403Z,-1.23
2022-12-17T08:05:49.568Z,-1.27
2022-12-17T08:08:34.570Z,-1.24
2022-12-17T08:11:19.858Z,-1.18
2022-12-17T08:14:05.046Z,-0.86
2022-12-17T08:16:50.081Z,-0.87
2022-12-17T08:19:35.401Z,-0.51
2022-12-17T08:22:20.664Z,-0.52
2022-12-17T08:25:05.504Z,-0.40
2022-12-17T08:27:50.315Z,-0.45
2022-12-17T08:30:35.072Z,-0.55
2022-12-17T08:33:24.082Z,-0.32
2022-12-17T08:36:11.148Z,-0.44
2022-12-17T08:38:56.343Z,-0.29
2022-12-17T08:41:41.161Z,-0.36
2022-12-17T08:44:27.839Z,-0.26
2022-12-17T08:47:13.088Z,-0.12
2022-12-17T08:49:58.179Z,-0.01
2022-12-17T08:52:43.119Z,-0.17
2022-12-17T08:55:28.350Z,-0.01
2022-12-17T08:58:17.213Z,0.00
2022-12-17T09:01:03.302Z,0.16
2022-12-17T09:03:47.934Z,0.13
2022-12-17T09:06:38.879Z,0.18
2022-12-17T09:09:24.686Z,0.18
2022-12-17T09:12:09.643Z,0.08
2022-12-17T09:14:54.482Z,-0.01
2022-12-17T09:17:39.899Z,0.16
2022-12-17T09:20:29.214Z,0.23
2022-12-17T09:23:15.542Z,0.37
2022-12-17T09:26:00.328Z,0.39
2022-12-17T09:28:45.480Z,0.50
2022-12-17T09:31:36.848Z,0.56
2022-12-17T09:34:30.059Z,0.59
2022-12-17T09:37:15.217Z,0.61
2022-12-17T09:39:59.897Z,0.69
2022-12-17T09:43:00.420Z,0.79
2022-12-17T09:46:06.706Z,0.61
2022-12-17T09:49:19.426Z,0.55
2022-12-17T09:52:04.732Z,0.42
2022-12-17T09:55:01.235Z,0.44
2022-12-17T09:57:52.321Z,0.53
2022-12-17T10:00:39.253Z,0.58
2022-12-17T10:03:31.558Z,0.58
2022-12-17T10:06:24.753Z,0.57
2022-12-17T10:09:16.425Z,0.74
2022-12-17T10:12:01.531Z,0.61
2022-12-17T10:14:46.956Z,0.84
2022-12-17T10:17:40.538Z,1.21
2022-12-17T10:20:45.294Z,1.14
2022-12-17T10:23:44.305Z,0.87
2022-12-17T10:26:35.652Z,0.96
2022-12-17T10:29:23.047Z,1.04
2022-12-17T10:32:08.933Z,0.94
2022-12-17T10:34:58.251Z,1.08
2022-12-17T10:37:46.936Z,1.27
2022-12-17T10:40:42.225Z,1.28
2022-12-17T10:43:47.876Z,1.07
2022-12-17T10:46:46.096Z,1.16
2022-12-17T10:49:39.824Z,1.50
2022-12-17T10:52:46.838Z,1.44
2022-12-17T10:55:47.257Z,1.49
2022-12-17T10:58:40.607Z,1.21
2022-12-17T11:01:30.337Z,1.41
2022-12-17T11:04:16.682Z,1.51
2022-12-17T11:07:08.913Z,1.68
2022-12-17T11:09:56.597Z,1.40
2022-12-17T11:12:50.651Z,1.25
2022-12-17T11:15:40.709Z,1.30
2022-12-17T11:18:34.727Z,1.41
2022-12-17T11:21:28.976Z,1.31
2022-12-17T11:24:22.017Z,1.08
2022-12-17T11:27:12.199Z,1.01
2022-12-17T11:29:57.172Z,0.88
2022-12-17T11:32:57.287Z,0.94
2022-12-17T11:35:51.627Z,1.00
2022-12-17T11:38:52.471Z,1.14
2022-12-17T11:41:56.778Z,1.39
2022-12-17T11:44:47.084Z,1.26
2022-12-17T11:48:04.265Z,1.27
2022-12-17T11:51:21.388Z,0.95
2022-12-17T11:54:38.910Z,1.12
2022-12-17T11:57:42.195Z,1.04
2022-12-17T12:00:37.179Z,1.25
2022-12-17T12:03:41.275Z,1.22
2022-12-17T12:06:35.528Z,1.40
2022-12-17T12:09:46.142Z,1.19
2022-12-17T12:13:21.942Z,1.24
2022-12-17T12:16:22.131Z,1.07
2022-12-17T12:19:25.624Z,1.33
2022-12-17T12:22:34.320Z,0.74
2022-12-17T12:25:27.741Z,0.64
2022-12-17T12:28:18.618Z,0.66
2022-12-17T12:31:21.990Z,0.73
2022-12-17T12:34:21.160Z,0.73
2022-12-17T12:37:08.222Z,0.83
2022-12-17T12:40:09.551Z,0.75
2022-12-17T12:43:03.435Z,0.41
2022-12-17T12:46:10.057Z,0.36
2022-12-17T12:49:18.387Z,0.48
2022-12-17T12:52:03.763Z,0.50
2022-12-17T12:55:07.863Z,0.56
2022-12-17T12:57:53.566Z,0.36
2022-12-17T13:00:41.486Z,0.37
2022-12-17T13:03:48.745Z,0.28
2022-12-17T13:06:43.011Z,0.54
2022-12-17T13:09:15.116Z,0.35
2022-12-17T13:11:48.625Z,0.50
2022-12-17T13:14:17.630Z,0.30
2022-12-17T13:16:47.081Z,0.34
2022-12-17T13:19:20.885Z,0.32
2022-12-17T13:21:47.286Z,0.46
2022-12-17T13:24:25.049Z,0.48
2022-12-17T13:26:51.867Z,0.70
2022-12-17T13:29:27.455Z,0.51
2022-12-17T13:31:57.369Z,0.53
2022-12-17T13:34:30.186Z,0.46
2022-12-17T13:37:17.319Z,0.46
2022-12-17T13:39:54.304Z,0.58
2022-12-17T13:42:28.569Z,0.65
2022-12-17T13:44:56.126Z,0.76
2022-12-17T13:47:25.840Z,0.69
2022-12-17T13:50:31.688Z,0.64
2022-12-17T13:52:41.140Z,0.65
2022-12-17T13:55:13.327Z,0.45
2022-12-17T13:57:45.653Z,0.26
2022-12-17T14:00:24.089Z,0.26
2022-12-17T14:02:51.419Z,0.22
2022-12-17T14:05:32.945Z,0.23
2022-12-17T14:08:04.626Z,0.13
2022-12-17T14:10:32.344Z,-0.07
2022-12-17T14:13:11.935Z,-0.23
2022-12-17T14:15:43.606Z,-0.28
2022-12-17T14:18:15.355Z,-0.21
2022-12-17T14:20:41.960Z,-0.29
2022-12-17T14:23:28.007Z,-0.16
2022-12-17T14:25:54.737Z,-0.13
2022-12-17T14:28:21.445Z,-0.13
2022-12-17T14:31:24.399Z,-0.24
2022-12-17T14:33:37.074Z,-0.29
2022-12-17T14:36:15.718Z,-0.35
2022-12-17T14:38:52.315Z,-0.20
2022-12-17T14:41:38.350Z,-0.18
2022-12-17T14:44:05.598Z,-0.29
2022-12-17T14:46:33.981Z,-0.18
2022-12-17T14:49:04.108Z,-0.07
2022-12-17T14:51:37.155Z,-0.06
2022-12-17T14:54:18.835Z,0.11
2022-12-17T14:56:46.876Z,0.02
2022-12-17T14:59:36.987Z,0.19
2022-12-17T15:02:27.834Z,0.13
2022-12-17T15:05:01.236Z,-0.09
2022-12-17T15:07:30.934Z,-0.14
2022-12-17T15:09:57.575Z,0.13
2022-12-17T15:12:24.498Z,0.34
2022-12-17T15:14:51.052Z,0.33
2022-12-17T15:17:17.387Z,0.18
2022-12-17T15:19:43.986Z,0.16
2022-12-17T15:22:17.394Z,0.40
2022-12-17T15:24:44.681Z,0.34
2022-12-17T15:27:13.797Z,0.17
2022-12-17T15:29:41.039Z,0.03
2022-12-17T15:32:16.412Z,0.07
2022-12-17T15:34:42.961Z,-0.04
2022-12-17T15:37:09.800Z,0.06
2022-12-17T15:39:37.427Z,0.18
2022-12-17T15:42:22.117Z,0.00
2022-12-17T15:44:49.063Z,0.27
2022-12-17T15:47:15.396Z,0.40
2022-12-17T15:49:44.087Z,0.60
2022-12-17T15:52:14.302Z,0.57
2022-12-17T15:54:44.381Z,0.49
2022-12-17T15:57:16.789Z,0.47
2022-12-17T15:59:45.510Z,0.32
2022-12-17T16:02:12.363Z,0.38
2022-12-17T16:04:40.235Z,0.38
2022-12-17T16:07:06.626Z,0.49
2022-12-17T16:09:33.263Z,0.65
2022-12-17T16:11:59.604Z,0.81
2022-12-17T16:14:26.279Z,0.74
2022-12-17T16:16:52.648Z,0.63
2022-12-17T16:19:19.620Z,0.50
2022-12-17T16:21:47.072Z,0.50
2022-12-17T16:24:14.503Z,0.63
2022-12-17T16:26:40.949Z,0.70
2022-12-17T16:29:07.616Z,0.75
2022-12-17T16:31:34.305Z,0.77
2022-12-17T16:34:01.125Z,0.78
2022-12-17T16:36:27.317Z,0.89
2022-12-17T16:38:54.563Z,0.98
2022-12-17T16:41:21.839Z,0.94
2022-12-17T16:43:48.513Z,1.02
2022-12-17T16:46:29.644Z,1.03
2022-12-17T16:48:58.503Z,0.93
2022-12-17T16:51:29.254Z,0.95
2022-12-17T16:53:58.013Z,0.95
2022-12-17T16:56:27.768Z,0.97
2022-12-17T16:58:55.377Z,0.78
2022-12-17T17:01:25.306Z,0.81
2022-12-17T17:03:52.033Z,0.89
2022-12-17T17:06:20.505Z,0.87
2022-12-17T17:08:47.016Z,0.94
2022-12-17T17:11:17.276Z,0.88
2022-12-17T17:13:44.438Z,0.97
2022-12-17T17:16:11.489Z,0.88
2022-12-17T17:18:39.036Z,0.81
2022-12-17T17:21:16.016Z,0.82
2022-12-17T17:23:42.828Z,0.70
2022-12-17T17:26:09.684Z,0.74
2022-12-17T17:28:36.844Z,0.81
2022-12-17T17:31:06.622Z,0.78
2022-12-17T17:33:39.937Z,0.76
2022-12-17T17:36:11.499Z,0.76
2022-12-17T17:38:40.211Z,0.63
2022-12-17T17:41:09.889Z,0.76
2022-12-17T17:43:36.989Z,0.79
2022-12-17T17:46:09.526Z,0.85
2022-12-17T17:48:37.352Z,0.89
2022-12-17T17:51:17.724Z,0.88
2022-12-17T17:53:46.283Z,0.83
2022-12-17T17:56:15.799Z,0.67
2022-12-17T17:58:48.804Z,0.58
2022-12-17T18:01:22.879Z,0.64
2022-12-17T18:03:52.057Z,0.61
2022-12-17T18:06:19.036Z,0.65
2022-12-17T18:08:46.199Z,0.68
2022-12-17T18:11:22.821Z,0.70
2022-12-17T18:13:56.552Z,0.63
2022-12-17T18:16:43.973Z,0.71
2022-12-17T18:19:12.234Z,0.70
2022-12-17T18:21:39.095Z,0.64
2022-12-17T18:24:12.076Z,0.58
2022-12-17T18:26:41.774Z,0.48
2022-12-17T18:29:10.222Z,0.36
2022-12-17T18:31:36.641Z,0.31
2022-12-17T18:34:05.417Z,0.42
2022-12-17T18:36:38.257Z,0.56
2022-12-17T18:39:17.416Z,0.55
2022-12-17T18:42:04.042Z,0.46
2022-12-17T18:44:32.089Z,0.38
2022-12-17T18:46:58.570Z,0.50
2022-12-17T18:49:26.325Z,0.56
2022-12-17T18:51:53.996Z,0.47
2022-12-17T18:54:26.414Z,0.53
2022-12-17T18:57:00.895Z,0.36
2022-12-17T18:59:29.718Z,0.39
2022-12-17T19:01:57.791Z,0.45
2022-12-17T19:04:25.562Z,0.58
2022-12-17T19:06:52.820Z,0.60
2022-12-17T19:09:28.433Z,0.50
2022-12-17T19:11:55.472Z,0.38
2022-12-17T19:14:22.713Z,0.51
2022-12-17T19:16:50.360Z,0.40
2022-12-17T19:19:17.341Z,0.41
2022-12-17T19:21:43.645Z,0.36
2022-12-17T19:24:14.876Z,0.48
2022-12-17T19:26:41.845Z,0.47
2022-12-17T19:29:11.049Z,0.50
2022-12-17T19:31:37.455Z,0.23
2022-12-17T19:34:05.974Z,0.34
2022-12-17T19:36:34.832Z,0.18
2022-12-17T19:39:05.470Z,0.06
2022-12-17T19:41:33.228Z,0.35
2022-12-17T19:44:03.838Z,0.36
2022-12-17T19:46:31.613Z,0.36
2022-12-17T19:49:17.094Z,0.33
2022-12-17T19:51:44.346Z,0.19
2022-12-17T19:54:14.187Z,0.15
2022-12-17T19:56:43.636Z,0.28
2022-12-17T19:59:11.394Z,0.37
2022-12-17T20:01:43.643Z,0.39
2022-12-17T20:04:14.873Z,0.48
2022-12-17T20:06:42.585Z,0.44
2022-12-17T20:09:11.706Z,0.31
2022-12-17T20:11:38.654Z,0.36
2022-12-17T20:14:10.788Z,0.50
2022-12-17T20:16:39.903Z,0.47
2022-12-17T20:19:10.507Z,0.43
2022-12-17T20:21:38.137Z,0.43
2022-12-17T20:24:06.152Z,0.45
2022-12-17T20:26:33.623Z,0.40
2022-12-17T20:29:00.563Z,0.34
2022-12-17T20:31:27.441Z,0.32
2022-12-17T20:33:54.555Z,0.36
2022-12-17T20:36:22.432Z,0.54
2022-12-17T20:38:49.114Z,0.49
2022-12-17T20:41:22.428Z,0.43
2022-12-17T20:43:59.179Z,0.30
2022-12-17T20:46:25.743Z,-0.03
2022-12-17T20:48:52.789Z,-0.09
2022-12-17T20:51:22.269Z,0.17
2022-12-17T20:53:50.079Z,0.24
2022-12-17T20:56:20.589Z,0.20
2022-12-17T20:58:51.092Z,0.14
2022-12-17T21:01:19.916Z,0.21
2022-12-17T21:03:48.840Z,0.28
2022-12-17T21:06:24.066Z,0.22
2022-12-17T21:08:53.341Z,0.22
2022-12-17T21:11:27.214Z,0.13
2022-12-17T21:13:55.112Z,0.26
2022-12-17T21:16:25.138Z,0.18
2022-12-17T21:18:53.277Z,0.30
2022-12-17T21:21:22.645Z,0.12
2022-12-17T21:23:49.983Z,0.11
2022-12-17T21:26:23.965Z,-0.10
2022-12-17T21:28:53.172Z,-0.13
2022-12-17T21:31:30.421Z,-0.01
2022-12-17T21:34:00.774Z,-0.04
2022-12-17T21:36:30.384Z,-0.27
2022-12-17T21:38:58.717Z,-0.37
2022-12-17T21:41:31.879Z,-0.57
2022-12-17T21:44:01.625Z,-0.60
2022-12-17T21:46:29.599Z,-0.71
2022-12-17T21:48:58.621Z,-0.82
2022-12-17T21:51:26.758Z,-0.64
2022-12-17T21:53:58.460Z,-0.61
2022-12-17T21:56:25.424Z,-0.64
2022-12-17T21:59:00.333Z,-0.68
2022-12-17T22:01:31.638Z,-0.63
2022-12-17T22:04:02.409Z,-0.74
2022-12-17T22:06:33.355Z,-1.01
2022-12-17T22:09:13.169Z,-0.94
2022-12-17T22:12:12.592Z,-0.88
2022-12-17T22:14:39.351Z,-1.03
2022-12-17T22:17:05.741Z,-1.13
2022-12-17T22:19:34.764Z,-1.09
2022-12-17T22:22:01.118Z,-1.26
2022-12-17T22:24:28.149Z,-1.20
2022-12-17T22:27:00.304Z,-1.13
2022-12-17T22:29:46.607Z,-1.13
2022-12-17T22:32:31.785Z,-1.25
2022-12-17T22:36:49.138Z,-1.44
2022-12-17T22:41:03.849Z,-1.55
2022-12-17T22:43:33.085Z,-1.55
2022-12-17T22:44:46.801Z,-1.54
2022-12-17T22:46:16.802Z,-1.42
2022-12-17T22:48:44.599Z,-1.55
2022-12-17T22:51:16.389Z,-1.71
2022-12-17T22:53:47.279Z,-1.83
2022-12-17T22:56:22.220Z,-1.77
2022-12-17T22:59:01.801Z,-1.76
2022-12-17T23:01:28.616Z,-1.61
2022-12-17T23:03:59.271Z,-1.52
2022-12-17T23:06:27.644Z,-1.39
2022-12-17T23:08:54.987Z,-1.59
2022-12-17T23:11:26.751Z,-1.62
2022-12-17T23:13:53.156Z,-1.41
2022-12-17T23:16:20.482Z,-1.46
2022-12-17T23:18:49.308Z,-1.56
2022-12-17T23:21:23.122Z,-1.46
2022-12-17T23:23:50.144Z,-1.44
2022-12-17T23:26:19.652Z,-1.36
2022-12-17T23:28:46.292Z,-1.16
2022-12-17T23:31:17.096Z,-1.30
2022-12-17T23:33:44.419Z,-1.16
2022-12-17T23:36:16.952Z,-1.42
2022-12-17T23:38:43.596Z,-1.66
2022-12-17T23:41:16.567Z,-1.67
2022-12-17T23:43:42.803Z,-1.59
2022-12-17T23:46:09.996Z,-1.60
2022-12-17T23:48:44.833Z,-1.76
2022-12-17T23:51:14.065Z,-1.75
2022-12-17T23:53:41.669Z,-1.79
2022-12-17T23:56:14.866Z,-1.88
2022-12-17T23:58:42.962Z,-1.84
